createdAt,value
2018-06-24T00:00:14.882Z,14.3
2018-06-24T00:01:34.733Z,14.3
2018-06-24T00:03:02.161Z,14.3
2018-06-24T00:04:22.019Z,14.3
2018-06-24T00:05:41.901Z,14.3
2018-06-24T00:07:01.761Z,14.4
2018-06-24T00:08:34.275Z,14.4
2018-06-24T00:09:54.137Z,14.3
2018-06-24T00:11:13.964Z,14.3
2018-06-24T00:12:38.881Z,14.4
2018-06-24T00:14:06.343Z,14.4
2018-06-24T00:15:26.188Z,14.4
2018-06-24T00:16:48.561Z,14.4
2018-06-24T00:18:08.433Z,14.4
2018-06-24T00:19:28.254Z,14.4
2018-06-24T00:20:48.082Z,14.3
2018-06-24T00:22:07.953Z,14.3
2018-06-24T00:23:27.799Z,14.4
2018-06-24T00:24:47.631Z,14.3
2018-06-24T00:26:10.037Z,14.4
2018-06-24T00:27:29.890Z,14.4
2018-06-24T00:28:52.278Z,14.4
2018-06-24T00:30:12.150Z,14.4
2018-06-24T00:31:31.989Z,14.4
2018-06-24T00:32:51.858Z,14.4
2018-06-24T00:34:11.745Z,14.4
2018-06-24T00:35:31.571Z,14.4
2018-06-24T00:36:53.953Z,14.4
2018-06-24T00:38:13.843Z,14.4
2018-06-24T00:39:33.735Z,14.4
2018-06-24T00:40:53.586Z,14.4
2018-06-24T00:42:15.995Z,14.4
2018-06-24T00:43:38.348Z,14.4
2018-06-24T00:45:03.249Z,14.4
2018-06-24T00:46:23.086Z,14.4
2018-06-24T00:47:42.905Z,14.4
2018-06-24T00:49:07.817Z,14.4
2018-06-24T00:50:27.692Z,14.3
2018-06-24T00:51:47.522Z,14.3
2018-06-24T00:53:12.415Z,14.4
2018-06-24T00:54:32.248Z,14.4
2018-06-24T00:55:54.690Z,14.4
2018-06-24T00:57:17.042Z,14.4
2018-06-24T00:58:39.458Z,14.4
2018-06-24T00:59:59.315Z,14.5
2018-06-24T01:01:21.741Z,14.5
2018-06-24T01:02:44.161Z,14.5
2018-06-24T01:04:06.511Z,14.5
2018-06-24T01:05:26.333Z,14.4
2018-06-24T01:06:46.175Z,14.5
2018-06-24T01:08:05.999Z,14.4
2018-06-24T01:09:25.831Z,14.4
2018-06-24T01:10:45.675Z,14.4
2018-06-24T01:12:05.543Z,14.4
2018-06-24T01:13:25.370Z,14.4
2018-06-24T01:14:45.190Z,14.4
2018-06-24T01:16:05.047Z,14.4
2018-06-24T01:17:27.436Z,14.4
2018-06-24T01:18:49.817Z,14.4
2018-06-24T01:20:09.669Z,14.4
2018-06-24T01:21:29.524Z,14.4
2018-06-24T01:22:51.914Z,14.4
2018-06-24T01:24:14.297Z,14.4
2018-06-24T01:25:34.171Z,14.4
2018-06-24T01:26:54.081Z,14.4
2018-06-24T01:28:16.480Z,14.4
2018-06-24T01:29:36.305Z,14.4
2018-06-24T01:30:58.671Z,14.4
2018-06-24T01:32:21.094Z,14.4
2018-06-24T01:33:40.927Z,14.4
2018-06-24T01:35:10.908Z,14.4
2018-06-24T01:36:33.287Z,14.4
2018-06-24T01:37:55.667Z,14.4
2018-06-24T01:39:15.496Z,14.4
2018-06-24T01:40:35.374Z,14.4
2018-06-24T01:42:02.799Z,14.4
2018-06-24T01:43:35.278Z,14.4
2018-06-24T01:44:55.098Z,14.4
2018-06-24T01:46:19.978Z,14.4
2018-06-24T01:47:47.399Z,14.4
2018-06-24T01:49:07.234Z,14.4
2018-06-24T01:50:32.158Z,14.4
2018-06-24T01:52:14.762Z,14.4
2018-06-24T01:53:37.125Z,14.4
2018-06-24T01:54:56.970Z,14.4
2018-06-24T01:56:16.813Z,14.3
2018-06-24T01:57:36.656Z,14.4
2018-06-24T01:58:56.476Z,14.3
2018-06-24T02:00:21.381Z,14.3
2018-06-24T02:01:41.213Z,14.4
2018-06-24T02:03:03.618Z,14.3
2018-06-24T02:04:28.528Z,14.3
2018-06-24T02:05:48.424Z,14.3
2018-06-24T02:07:08.284Z,14.3
2018-06-24T02:08:33.166Z,14.3
2018-06-24T02:09:52.991Z,14.3
2018-06-24T02:11:12.846Z,14.3
2018-06-24T02:12:32.733Z,14.2
2018-06-24T02:13:55.080Z,14.3
2018-06-24T02:15:35.173Z,14.3
2018-06-24T02:17:00.063Z,14.3
2018-06-24T02:18:19.890Z,14.3
2018-06-24T02:19:42.245Z,14.3
2018-06-24T02:21:02.074Z,14.3
2018-06-24T02:22:21.901Z,14.3
2018-06-24T02:23:46.815Z,14.3
2018-06-24T02:25:06.634Z,14.3
2018-06-24T02:26:29.017Z,14.3
2018-06-24T02:27:48.868Z,14.3
2018-06-24T02:29:11.221Z,14.3
2018-06-24T02:30:38.697Z,14.3
2018-06-24T02:32:03.592Z,14.3
2018-06-24T02:33:31.011Z,14.3
2018-06-24T02:34:50.836Z,14.3
2018-06-24T02:36:13.213Z,14.3
2018-06-24T02:37:35.568Z,14.3
2018-06-24T02:38:57.955Z,14.3
2018-06-24T02:40:20.338Z,14.3
2018-06-24T02:41:42.756Z,14.3
2018-06-24T02:43:02.588Z,14.2
2018-06-24T02:44:24.952Z,14.3
2018-06-24T02:45:44.793Z,14.3
2018-06-24T02:47:04.676Z,14.3
2018-06-24T02:48:29.576Z,14.3
2018-06-24T02:49:51.940Z,14.3
2018-06-24T02:51:11.828Z,14.3
2018-06-24T02:52:31.707Z,14.2
2018-06-24T02:53:54.103Z,14.2
2018-06-24T02:55:16.460Z,14.2
2018-06-24T02:56:36.327Z,14.2
2018-06-24T02:57:56.197Z,14.2
2018-06-24T02:59:16.043Z,14.2
2018-06-24T03:00:35.877Z,14.3
2018-06-24T03:01:58.231Z,14.2
2018-06-24T03:03:18.115Z,14.2
2018-06-24T03:04:37.993Z,14.2
2018-06-24T03:05:57.836Z,14.2
2018-06-24T03:07:17.663Z,14.2
2018-06-24T03:08:45.090Z,14.1
2018-06-24T03:10:04.925Z,14.2
2018-06-24T03:11:24.774Z,14.1
2018-06-24T03:12:44.639Z,14.1
2018-06-24T03:14:04.468Z,14.2
2018-06-24T03:15:26.863Z,14.1
2018-06-24T03:16:46.685Z,14.1
2018-06-24T03:18:06.551Z,14.1
2018-06-24T03:19:28.923Z,14.2
2018-06-24T03:20:48.772Z,14.2
2018-06-24T03:22:11.167Z,14.2
2018-06-24T03:23:30.994Z,14.2
2018-06-24T03:24:50.866Z,14
2018-06-24T03:26:13.216Z,14
2018-06-24T03:27:33.109Z,14.1
2018-06-24T03:28:55.515Z,14
2018-06-24T03:30:20.448Z,14
2018-06-24T03:31:40.279Z,14
2018-06-24T03:33:02.638Z,14
2018-06-24T03:34:22.478Z,14
2018-06-24T03:35:44.874Z,14.1
2018-06-24T03:37:04.719Z,14
2018-06-24T03:38:27.079Z,14
2018-06-24T03:39:51.966Z,14.1
2018-06-24T03:41:12.157Z,14.1
2018-06-24T03:42:42.252Z,14.1
2018-06-24T03:44:02.153Z,14
2018-06-24T03:45:24.526Z,14
2018-06-24T03:46:59.532Z,14
2018-06-24T03:48:19.362Z,14
2018-06-24T03:49:44.266Z,14.1
2018-06-24T03:51:11.682Z,14.1
2018-06-24T03:52:31.528Z,14
2018-06-24T03:53:53.946Z,14
2018-06-24T03:55:18.868Z,14
2018-06-24T03:56:43.798Z,14
2018-06-24T03:58:06.207Z,14
2018-06-24T03:59:26.149Z,14
2018-06-24T04:00:51.042Z,14
2018-06-24T04:02:10.875Z,13.9
2018-06-24T04:03:33.245Z,14
2018-06-24T04:05:03.194Z,14
2018-06-24T04:06:23.018Z,14
2018-06-24T04:07:45.394Z,14
2018-06-24T04:09:15.369Z,14.1
2018-06-24T04:10:35.247Z,14.1
2018-06-24T04:11:57.614Z,14.1
2018-06-24T04:13:19.971Z,14.1
2018-06-24T04:14:47.449Z,14
2018-06-24T04:16:09.818Z,14
2018-06-24T04:17:29.647Z,14
2018-06-24T04:18:57.112Z,14
2018-06-24T04:20:19.496Z,14
2018-06-24T04:21:44.393Z,14
2018-06-24T04:23:04.218Z,14.1
2018-06-24T04:24:24.083Z,14.1
2018-06-24T04:25:43.953Z,14.1
2018-06-24T04:27:06.399Z,14.1
2018-06-24T04:28:26.222Z,14.1
2018-06-24T04:29:48.595Z,14.1
2018-06-24T04:31:08.466Z,14.1
2018-06-24T04:32:43.512Z,14.1
2018-06-24T04:34:03.362Z,14.1
2018-06-24T04:35:23.215Z,14.1
2018-06-24T04:36:43.052Z,14
2018-06-24T04:38:02.927Z,14.1
2018-06-24T04:39:25.341Z,14.1
2018-06-24T04:40:50.278Z,14.1
2018-06-24T04:42:10.097Z,14.1
2018-06-24T04:43:37.536Z,14
2018-06-24T04:45:07.484Z,14
2018-06-24T04:46:27.320Z,14
2018-06-24T04:47:49.709Z,14
2018-06-24T04:49:09.541Z,14
2018-06-24T04:50:31.913Z,13.9
2018-06-24T04:51:51.743Z,14
2018-06-24T04:53:16.625Z,13.9
2018-06-24T04:54:38.989Z,13.9
2018-06-24T04:55:58.843Z,13.9
2018-06-24T04:57:26.273Z,13.9
2018-06-24T04:58:48.686Z,13.9
2018-06-24T05:00:16.115Z,14
2018-06-24T05:01:35.976Z,14
2018-06-24T05:02:55.799Z,14
2018-06-24T05:04:15.621Z,14
2018-06-24T05:05:35.458Z,14
2018-06-24T05:07:00.354Z,14.1
2018-06-24T05:08:20.245Z,14.1
2018-06-24T05:09:50.196Z,14.1
2018-06-24T05:11:10.029Z,14.1
2018-06-24T05:12:29.881Z,14
2018-06-24T05:13:59.838Z,14
2018-06-24T05:15:24.719Z,14
2018-06-24T05:16:49.661Z,14
2018-06-24T05:18:12.023Z,14
2018-06-24T05:19:34.388Z,14
2018-06-24T05:20:56.749Z,14
2018-06-24T05:22:16.576Z,14.1
2018-06-24T05:23:46.537Z,14.1
2018-06-24T05:25:11.458Z,14.1
2018-06-24T05:26:31.284Z,14.1
2018-06-24T05:27:56.164Z,14.2
2018-06-24T05:29:18.559Z,14.2
2018-06-24T05:30:38.460Z,14.2
2018-06-24T05:31:58.341Z,14.3
2018-06-24T05:33:18.212Z,14.3
2018-06-24T05:34:38.064Z,14.3
2018-06-24T05:36:05.524Z,14.3
2018-06-24T05:37:27.906Z,14.4
2018-06-24T05:38:50.269Z,14.4
2018-06-24T05:40:10.098Z,14.4
2018-06-24T05:41:29.929Z,14.4
2018-06-24T05:42:49.787Z,14.4
2018-06-24T05:44:09.661Z,14.4
2018-06-24T05:45:29.492Z,14.3
2018-06-24T05:46:59.488Z,14.4
2018-06-24T05:48:19.330Z,14.5
2018-06-24T05:49:39.185Z,14.6
2018-06-24T05:50:59.013Z,14.4
2018-06-24T05:52:18.894Z,14.2
2018-06-24T05:53:38.734Z,14.1
2018-06-24T05:54:58.596Z,14.9
2018-06-24T05:56:18.491Z,14.9
2018-06-24T05:57:38.351Z,14.8
2018-06-24T05:58:58.232Z,14.8
2018-06-24T06:00:23.140Z,14.9
2018-06-24T06:01:42.999Z,14.8
2018-06-24T06:03:07.923Z,14.6
2018-06-24T06:04:30.285Z,14.7
2018-06-24T06:05:57.796Z,14.8
2018-06-24T06:07:17.641Z,14.9
2018-06-24T06:08:40.020Z,14.8
2018-06-24T06:10:12.576Z,14.9
2018-06-24T06:11:34.995Z,14.9
2018-06-24T06:12:57.352Z,14.9
2018-06-24T06:14:22.264Z,14.8
2018-06-24T06:15:52.206Z,14.9
2018-06-24T06:17:12.045Z,14.9
2018-06-24T06:18:36.929Z,14.9
2018-06-24T06:20:04.407Z,14.9
2018-06-24T06:21:26.763Z,14.9
2018-06-24T06:22:49.178Z,15
2018-06-24T06:24:09.034Z,15
2018-06-24T06:25:28.916Z,15
2018-06-24T06:26:51.277Z,15
2018-06-24T06:28:11.154Z,15.1
2018-06-24T06:29:36.037Z,15
2018-06-24T06:30:55.880Z,15
2018-06-24T06:32:15.738Z,15.1
2018-06-24T06:33:38.184Z,15.2
2018-06-24T06:34:58.088Z,15.2
2018-06-24T06:36:20.479Z,15.2
2018-06-24T06:37:40.300Z,15.3
2018-06-24T06:39:02.672Z,15.3
2018-06-24T06:40:22.522Z,15.3
2018-06-24T06:41:44.879Z,15.3
2018-06-24T06:43:04.709Z,15.2
2018-06-24T06:44:24.556Z,15.3
2018-06-24T06:45:44.609Z,15.3
2018-06-24T06:47:04.648Z,15.3
2018-06-24T06:48:24.468Z,15.3
2018-06-24T06:49:44.300Z,15.2
2018-06-24T06:51:04.132Z,15.2
2018-06-24T06:52:23.993Z,15.2
2018-06-24T06:53:46.383Z,15.2
2018-06-24T06:55:08.751Z,15.2
2018-06-24T06:56:28.613Z,15.1
2018-06-24T06:57:51.019Z,15.3
2018-06-24T06:59:18.518Z,15.4
2018-06-24T07:00:48.474Z,15.4
2018-06-24T07:02:08.358Z,15.4
2018-06-24T07:03:35.775Z,15.5
2018-06-24T07:04:55.634Z,15.4
2018-06-24T07:06:20.563Z,15.2
2018-06-24T07:07:40.398Z,15.4
2018-06-24T07:09:02.787Z,15.6
2018-06-24T07:10:22.645Z,15.6
2018-06-24T07:11:42.497Z,15.8
2018-06-24T07:13:02.336Z,15.9
2018-06-24T07:14:27.261Z,16
2018-06-24T07:15:52.219Z,16
2018-06-24T07:17:17.184Z,16.1
2018-06-24T07:18:37.059Z,16.1
2018-06-24T07:20:01.945Z,16.1
2018-06-24T07:21:24.372Z,16.1
2018-06-24T07:22:44.233Z,16.2
2018-06-24T07:24:06.628Z,16
2018-06-24T07:25:26.498Z,16.1
2018-06-24T07:26:46.331Z,16.1
2018-06-24T07:28:06.155Z,16.1
2018-06-24T07:29:28.510Z,16.1
2018-06-24T07:30:48.343Z,16
2018-06-24T07:32:10.698Z,16.2
2018-06-24T07:33:30.601Z,16.1
2018-06-24T07:34:50.450Z,16.1
2018-06-24T07:36:15.346Z,16
2018-06-24T07:37:37.786Z,16
2018-06-24T07:38:57.644Z,16.2
2018-06-24T07:40:22.561Z,16.3
2018-06-24T07:41:42.419Z,16.3
2018-06-24T07:43:02.250Z,16.2
2018-06-24T07:44:27.155Z,16.1
2018-06-24T07:45:52.104Z,16
2018-06-24T07:47:11.984Z,16
2018-06-24T07:48:34.378Z,16
2018-06-24T07:49:56.773Z,16.1
2018-06-24T07:51:19.125Z,16
2018-06-24T07:52:38.959Z,16.2
2018-06-24T07:53:58.809Z,16.2
2018-06-24T07:55:18.637Z,16.2
2018-06-24T07:56:38.514Z,16.2
2018-06-24T07:58:00.868Z,16.2
2018-06-24T07:59:23.239Z,16.3
2018-06-24T08:00:45.648Z,16.3
2018-06-24T08:02:08.035Z,16.2
2018-06-24T08:03:27.945Z,16.3
2018-06-24T08:04:47.799Z,16.2
2018-06-24T08:06:10.149Z,16.3
2018-06-24T08:07:30.011Z,16.5
2018-06-24T08:08:49.840Z,16.7
2018-06-24T08:10:09.719Z,16.6
2018-06-24T08:11:34.596Z,16.7
2018-06-24T08:13:04.564Z,16.6
2018-06-24T08:14:24.427Z,16.6
2018-06-24T08:15:49.345Z,16.7
2018-06-24T08:17:11.753Z,16.6
2018-06-24T08:18:31.640Z,16.6
2018-06-24T08:19:54.034Z,16.7
2018-06-24T08:21:13.916Z,16.7
2018-06-24T08:22:38.828Z,16.7
2018-06-24T08:24:08.779Z,16.7
2018-06-24T08:25:36.246Z,16.7
2018-06-24T08:26:58.597Z,16.8
2018-06-24T08:28:26.022Z,16.9
2018-06-24T08:29:48.382Z,17.1
2018-06-24T08:31:10.749Z,17
2018-06-24T08:32:33.110Z,16.9
2018-06-24T08:33:55.541Z,16.9
2018-06-24T08:35:15.371Z,16.9
2018-06-24T08:36:35.216Z,16.9
2018-06-24T08:37:55.050Z,17
2018-06-24T08:39:17.445Z,17
2018-06-24T08:40:39.796Z,17
2018-06-24T08:42:02.173Z,17
2018-06-24T08:43:22.013Z,17
2018-06-24T08:44:41.843Z,17
2018-06-24T08:46:04.251Z,17
2018-06-24T08:47:29.189Z,17.1
2018-06-24T08:48:54.123Z,17.1
2018-06-24T08:50:19.038Z,17.1
2018-06-24T08:51:38.862Z,17.3
2018-06-24T08:53:16.410Z,17.4
2018-06-24T08:54:48.955Z,17.5
2018-06-24T08:56:08.838Z,17.5
2018-06-24T08:57:31.201Z,17.6
2018-06-24T08:58:53.596Z,17.6
2018-06-24T09:00:13.422Z,17.7
2018-06-24T09:01:35.774Z,17.7
2018-06-24T09:02:55.611Z,17.7
2018-06-24T09:04:15.441Z,17.6
2018-06-24T09:05:37.830Z,17.5
2018-06-24T09:07:05.262Z,17.6
2018-06-24T09:08:27.684Z,17.7
2018-06-24T09:09:47.542Z,17.6
2018-06-24T09:11:09.919Z,17.6
2018-06-24T09:12:32.300Z,17.7
2018-06-24T09:13:52.181Z,17.8
2018-06-24T09:15:17.143Z,17.9
2018-06-24T09:16:37.026Z,17.9
2018-06-24T09:17:59.422Z,17.9
2018-06-24T09:19:26.848Z,17.9
2018-06-24T09:20:46.684Z,18
2018-06-24T09:22:06.633Z,18
2018-06-24T09:23:39.157Z,18.1
2018-06-24T09:24:59.032Z,18
2018-06-24T09:26:18.865Z,18.1
2018-06-24T09:27:38.758Z,18.1
2018-06-24T09:29:13.776Z,18
2018-06-24T09:30:33.608Z,17.9
2018-06-24T09:31:53.461Z,17.8
2018-06-24T09:33:13.292Z,17.9
2018-06-24T09:34:38.183Z,18
2018-06-24T09:36:00.568Z,18
2018-06-24T09:37:22.933Z,18.1
2018-06-24T09:38:45.313Z,18.1
2018-06-24T09:40:12.787Z,18
2018-06-24T09:41:35.147Z,18
2018-06-24T09:42:57.528Z,18.1
2018-06-24T09:44:19.881Z,18.1
2018-06-24T09:45:39.764Z,18.1
2018-06-24T09:47:02.151Z,18.1
2018-06-24T09:48:24.538Z,18.2
2018-06-24T09:49:44.380Z,18.1
2018-06-24T09:51:04.205Z,18.2
2018-06-24T09:52:31.657Z,18.3
2018-06-24T09:53:54.072Z,18.3
2018-06-24T09:55:21.481Z,18.3
2018-06-24T09:56:43.828Z,18.3
2018-06-24T09:58:03.710Z,18.3
2018-06-24T09:59:23.535Z,18.2
2018-06-24T10:00:43.403Z,18.2
2018-06-24T10:02:03.230Z,18.1
2018-06-24T10:03:23.069Z,18.2
2018-06-24T10:04:42.939Z,18.1
2018-06-24T10:06:05.377Z,18.2
2018-06-24T10:07:25.234Z,18.1
2018-06-24T10:08:45.070Z,18.1
2018-06-24T10:10:04.899Z,18.3
2018-06-24T10:11:27.278Z,18.4
2018-06-24T10:12:47.139Z,18.4
2018-06-24T10:14:06.992Z,18.4
2018-06-24T10:15:37.012Z,18.3
2018-06-24T10:16:56.859Z,18.2
2018-06-24T10:18:21.806Z,18.2
2018-06-24T10:19:44.210Z,18.3
2018-06-24T10:21:04.038Z,18.3
2018-06-24T10:22:23.866Z,18.4
2018-06-24T10:23:56.350Z,18.4
2018-06-24T10:25:16.174Z,18.4
2018-06-24T10:26:36.012Z,18.3
2018-06-24T10:27:55.849Z,18.4
2018-06-24T10:29:15.693Z,18.3
2018-06-24T10:30:38.066Z,18.3
2018-06-24T10:31:57.892Z,18.3
2018-06-24T10:33:20.286Z,18.4
2018-06-24T10:34:40.131Z,18.3
2018-06-24T10:35:59.950Z,18.4
2018-06-24T10:37:19.803Z,18.4
2018-06-24T10:38:39.625Z,18.5
2018-06-24T10:40:02.020Z,18.5
2018-06-24T10:41:34.548Z,18.5
2018-06-24T10:42:56.934Z,18.6
2018-06-24T10:44:19.329Z,18.5
2018-06-24T10:45:39.170Z,18.6
2018-06-24T10:47:01.591Z,18.6
2018-06-24T10:48:23.958Z,18.6
2018-06-24T10:49:51.392Z,18.6
2018-06-24T10:51:11.274Z,18.7
2018-06-24T10:52:31.101Z,18.7
2018-06-24T10:53:50.953Z,18.8
2018-06-24T10:55:10.782Z,18.8
2018-06-24T10:56:33.134Z,18.9
2018-06-24T10:57:52.959Z,18.9
2018-06-24T10:59:22.902Z,18.9
2018-06-24T11:00:45.260Z,18.9
2018-06-24T11:02:10.250Z,18.9
2018-06-24T11:03:35.194Z,18.9
2018-06-24T11:04:55.027Z,18.9
2018-06-24T11:06:14.853Z,18.9
2018-06-24T11:07:37.233Z,18.9
2018-06-24T11:08:57.082Z,19
2018-06-24T11:10:22.006Z,19
2018-06-24T11:11:46.925Z,19
2018-06-24T11:13:09.281Z,19.1
2018-06-24T11:14:29.139Z,19.1
2018-06-24T11:15:48.989Z,19.1
2018-06-24T11:17:08.828Z,19.2
2018-06-24T11:18:28.659Z,19.2
2018-06-24T11:19:51.016Z,19.2
2018-06-24T11:21:14.383Z,19.2
2018-06-24T11:22:36.848Z,19.2
2018-06-24T11:23:56.709Z,19.2
2018-06-24T11:25:16.623Z,19.3
2018-06-24T11:26:36.480Z,19.3
2018-06-24T11:28:01.382Z,19.3
2018-06-24T11:29:26.331Z,19.4
2018-06-24T11:30:46.167Z,19.4
2018-06-24T11:32:06.053Z,19.4
2018-06-24T11:33:28.411Z,19.5
2018-06-24T11:34:48.244Z,19.5
2018-06-24T11:36:08.091Z,19.5
2018-06-24T11:37:43.098Z,19.5
2018-06-24T11:39:02.940Z,19.4
2018-06-24T11:40:35.472Z,19.4
2018-06-24T11:41:57.867Z,19.4
2018-06-24T11:43:20.230Z,19.4
2018-06-24T11:44:40.078Z,19.3
2018-06-24T11:45:59.997Z,19.2
2018-06-24T11:47:19.906Z,19.4
2018-06-24T11:48:42.298Z,19.5
2018-06-24T11:50:04.721Z,19.5
2018-06-24T11:51:27.138Z,19.4
2018-06-24T11:52:47.013Z,19.5
2018-06-24T11:54:06.913Z,19.5
2018-06-24T11:55:26.765Z,19.4
2018-06-24T11:56:49.127Z,19.6
2018-06-24T11:58:11.556Z,19.6
2018-06-24T11:59:31.413Z,19.6
2018-06-24T12:00:56.363Z,19.5
2018-06-24T12:02:28.906Z,19.5
2018-06-24T12:03:51.281Z,19.6
2018-06-24T12:05:16.177Z,19.5
2018-06-24T12:06:36.062Z,19.6
2018-06-24T12:07:58.499Z,19.6
2018-06-24T12:09:20.896Z,19.5
2018-06-24T12:10:45.865Z,19.6
2018-06-24T12:12:10.809Z,19.4
2018-06-24T12:13:30.638Z,19.4
2018-06-24T12:14:50.475Z,19.4
2018-06-24T12:16:10.316Z,19.5
2018-06-24T12:17:30.182Z,19.5
2018-06-24T12:18:52.563Z,19.5
2018-06-24T12:20:12.393Z,19.5
2018-06-24T12:21:32.267Z,19.6
2018-06-24T12:23:14.869Z,19.7
2018-06-24T12:24:39.751Z,19.7
2018-06-24T12:26:02.121Z,19.6
2018-06-24T12:27:22.035Z,19.7
2018-06-24T12:28:44.404Z,19.8
2018-06-24T12:30:04.238Z,19.9
2018-06-24T12:31:26.621Z,19.9
2018-06-24T12:32:49.022Z,19.9
2018-06-24T12:34:11.401Z,20
2018-06-24T12:35:33.772Z,20
2018-06-24T12:37:03.718Z,19.9
2018-06-24T12:38:23.549Z,19.9
2018-06-24T12:39:43.369Z,19.9
2018-06-24T12:41:03.236Z,19.9
2018-06-24T12:42:30.663Z,19.9
2018-06-24T12:43:50.504Z,19.9
2018-06-24T12:45:12.855Z,19.8
2018-06-24T12:46:35.258Z,19.9
2018-06-24T12:47:55.088Z,19.9
2018-06-24T12:49:14.917Z,19.9
2018-06-24T12:50:39.816Z,19.9
2018-06-24T12:51:59.692Z,19.9
2018-06-24T12:53:19.553Z,19.9
2018-06-24T12:54:39.378Z,19.9
2018-06-24T12:55:59.249Z,19.9
2018-06-24T12:57:21.640Z,20
2018-06-24T12:58:41.575Z,20
2018-06-24T13:00:07.156Z,20.1
2018-06-24T13:01:29.559Z,20.1
2018-06-24T13:02:54.454Z,20.1
2018-06-24T13:04:21.920Z,20.1
2018-06-24T13:05:41.814Z,20.1
2018-06-24T13:07:09.261Z,20.1
2018-06-24T13:08:29.144Z,20.1
2018-06-24T13:09:48.972Z,20.1
2018-06-24T13:11:08.825Z,20.1
2018-06-24T13:12:28.695Z,20
2018-06-24T13:13:51.087Z,20
2018-06-24T13:15:10.926Z,20
2018-06-24T13:16:45.963Z,19.9
2018-06-24T13:18:05.790Z,19.9
2018-06-24T13:19:30.741Z,19.9
2018-06-24T13:20:50.625Z,19.9
2018-06-24T13:22:12.988Z,19.9
2018-06-24T13:23:42.946Z,19.9
2018-06-24T13:25:07.842Z,19.9
2018-06-24T13:26:27.721Z,19.9
2018-06-24T13:27:50.106Z,19.9
2018-06-24T13:29:20.080Z,19.9
2018-06-24T13:30:42.488Z,19.9
2018-06-24T13:32:02.326Z,19.9
2018-06-24T13:33:24.749Z,19.8
2018-06-24T13:34:44.596Z,19.8
2018-06-24T13:36:12.062Z,19.8
2018-06-24T13:37:31.933Z,19.8
2018-06-24T13:38:51.792Z,19.7
2018-06-24T13:40:19.281Z,17.9
2018-06-24T13:41:39.132Z,19.8
2018-06-24T13:42:58.966Z,19.8
2018-06-24T13:44:18.831Z,19.8
2018-06-24T13:45:38.667Z,19.7
2018-06-24T13:46:58.526Z,19.6
2018-06-24T13:48:18.373Z,19.5
2018-06-24T13:49:43.264Z,19.5
2018-06-24T13:51:05.639Z,19.5
2018-06-24T13:52:30.603Z,19.3
2018-06-24T13:53:50.485Z,19.4
2018-06-24T13:55:10.325Z,19.3
2018-06-24T13:56:30.176Z,19.3
2018-06-24T13:57:50.001Z,19.3
2018-06-24T13:59:09.828Z,19.3
2018-06-24T14:00:32.207Z,19.3
2018-06-24T14:01:57.129Z,19.3
2018-06-24T14:03:22.029Z,19.3
2018-06-24T14:04:44.408Z,19.3
2018-06-24T14:06:04.296Z,19.2
2018-06-24T14:07:24.173Z,19.2
2018-06-24T14:08:44.035Z,19.2
2018-06-24T14:10:06.456Z,19.5
2018-06-24T14:11:33.871Z,19.4
2018-06-24T14:12:53.703Z,19.3
2018-06-24T14:14:13.528Z,19.3
2018-06-24T14:15:33.406Z,19.3
2018-06-24T14:16:53.248Z,19.3
2018-06-24T14:18:20.751Z,19.2
2018-06-24T14:19:40.620Z,19.3
2018-06-24T14:21:00.472Z,19.2
2018-06-24T14:22:27.910Z,19.2
2018-06-24T14:23:57.941Z,18.8
2018-06-24T14:25:17.773Z,19.3
2018-06-24T14:26:37.602Z,19.3
2018-06-24T14:27:57.438Z,19.3
2018-06-24T14:29:19.863Z,19.3
2018-06-24T14:30:39.731Z,19.2
2018-06-24T14:32:07.153Z,19.2
2018-06-24T14:33:27.032Z,19.3
2018-06-24T14:34:46.866Z,19.3
2018-06-24T14:36:24.448Z,19.2
2018-06-24T14:37:44.284Z,19.2
2018-06-24T14:39:04.120Z,19.1
2018-06-24T14:40:26.504Z,19.1
2018-06-24T14:41:46.356Z,19.1
2018-06-24T14:43:08.765Z,19.1
2018-06-24T14:44:28.582Z,19.1
2018-06-24T14:46:01.143Z,19
2018-06-24T14:47:23.501Z,17.7
2018-06-24T14:48:48.384Z,17.7
2018-06-24T14:50:18.380Z,17.2
2018-06-24T14:51:38.245Z,17.7
2018-06-24T14:52:58.126Z,19.2
2018-06-24T14:54:20.491Z,19.2
2018-06-24T14:55:40.335Z,19.2
2018-06-24T14:57:02.746Z,19
2018-06-24T14:58:30.183Z,19.1
2018-06-24T14:59:50.008Z,19.1
2018-06-24T15:01:12.378Z,19.1
2018-06-24T15:02:32.200Z,19.1
2018-06-24T15:03:57.112Z,19
2018-06-24T15:05:19.488Z,19
2018-06-24T15:06:41.842Z,19
2018-06-24T15:08:01.718Z,19
2018-06-24T15:09:29.178Z,19
2018-06-24T15:10:59.198Z,19
2018-06-24T15:12:19.047Z,18.9
2018-06-24T15:13:43.949Z,18.9
2018-06-24T15:15:03.774Z,18.9
2018-06-24T15:16:23.658Z,18.8
2018-06-24T15:17:43.482Z,18.8
2018-06-24T15:19:03.304Z,18.8
2018-06-24T15:20:28.206Z,18.8
2018-06-24T15:21:48.057Z,18.8
2018-06-24T15:23:15.505Z,18.8
2018-06-24T15:24:35.349Z,18.8
2018-06-24T15:25:55.187Z,18.8
2018-06-24T15:27:15.061Z,18.7
2018-06-24T15:28:34.883Z,18.7
2018-06-24T15:29:57.247Z,18.7
2018-06-24T15:31:19.633Z,18.7
2018-06-24T15:32:44.582Z,18.7
2018-06-24T15:34:09.507Z,18.7
2018-06-24T15:35:34.405Z,18.7
2018-06-24T15:36:59.353Z,18.7
2018-06-24T15:38:34.355Z,18.7
2018-06-24T15:39:54.221Z,18.7
2018-06-24T15:41:16.635Z,18.7
2018-06-24T15:42:38.999Z,18.7
2018-06-24T15:44:21.632Z,18.6
2018-06-24T15:45:49.079Z,18.6
2018-06-24T15:47:08.988Z,18.5
2018-06-24T15:48:31.349Z,18.5
2018-06-24T15:49:51.229Z,18.5
2018-06-24T15:51:11.085Z,18.5
2018-06-24T15:52:38.550Z,18.5
2018-06-24T15:54:08.492Z,18.4
2018-06-24T15:55:33.394Z,18.4
2018-06-24T15:56:55.782Z,18.4
2018-06-24T15:58:15.651Z,18.4
2018-06-24T15:59:35.508Z,18.4
2018-06-24T16:01:10.564Z,18.4
2018-06-24T16:02:32.931Z,18.3
2018-06-24T16:03:57.816Z,18.3
2018-06-24T16:05:17.646Z,18.3
2018-06-24T16:06:40.017Z,18.2
2018-06-24T16:07:59.896Z,18.2
2018-06-24T16:09:19.788Z,18.2
2018-06-24T16:10:42.157Z,18.2
2018-06-24T16:12:01.983Z,18.2
2018-06-24T16:13:21.855Z,18.1
2018-06-24T16:14:46.817Z,18.1
2018-06-24T16:16:11.715Z,18.1
2018-06-24T16:17:41.689Z,18.1
2018-06-24T16:19:01.514Z,18.1
2018-06-24T16:20:23.916Z,18
2018-06-24T16:21:43.888Z,18
2018-06-24T16:23:03.715Z,18
2018-06-24T16:24:23.538Z,17.9
2018-06-24T16:25:43.408Z,17.9
2018-06-24T16:27:03.240Z,17.9
2018-06-24T16:28:23.065Z,17.9
2018-06-24T16:29:42.935Z,17.9
2018-06-24T16:31:02.817Z,17.8
2018-06-24T16:32:22.698Z,17.7
2018-06-24T16:33:42.533Z,17.7
2018-06-24T16:35:02.360Z,17.7
2018-06-24T16:36:22.185Z,17.7
2018-06-24T16:37:52.138Z,17.7
2018-06-24T16:39:12.015Z,17.7
2018-06-24T16:40:31.843Z,17.6
2018-06-24T16:41:56.726Z,17.5
2018-06-24T16:43:16.581Z,17.5
2018-06-24T16:44:36.466Z,17.6
2018-06-24T16:45:58.819Z,17.6
2018-06-24T16:47:18.651Z,17.5
2018-06-24T16:48:38.483Z,17.5
2018-06-24T16:50:00.863Z,17.5
2018-06-24T16:51:25.799Z,17.4
2018-06-24T16:52:45.678Z,17.4
2018-06-24T16:54:10.602Z,17.4
2018-06-24T16:55:32.954Z,17.4
2018-06-24T16:56:52.783Z,17.4
2018-06-24T16:58:12.669Z,17.3
2018-06-24T16:59:42.664Z,17.2
2018-06-24T17:01:05.066Z,17.2
2018-06-24T17:02:32.529Z,17.1
2018-06-24T17:03:52.420Z,17.1
2018-06-24T17:05:12.310Z,17.1
2018-06-24T17:06:42.282Z,17.1
2018-06-24T17:08:04.698Z,17.1
2018-06-24T17:09:24.521Z,17.1
2018-06-24T17:10:49.476Z,17.1
2018-06-24T17:12:09.365Z,17.1
2018-06-24T17:13:29.223Z,17.1
2018-06-24T17:14:51.587Z,17.1
2018-06-24T17:16:13.966Z,17
2018-06-24T17:17:33.794Z,16.9
2018-06-24T17:18:53.665Z,16.7
2018-06-24T17:20:13.542Z,16.6
2018-06-24T17:21:33.385Z,16.8
2018-06-24T17:22:58.267Z,16.8
2018-06-24T17:24:23.180Z,16.8
2018-06-24T17:25:43.002Z,16.8
2018-06-24T17:27:02.837Z,16.7
2018-06-24T17:28:22.681Z,16.7
2018-06-24T17:29:45.117Z,16.7
2018-06-24T17:31:05.022Z,16.7
2018-06-24T17:32:24.896Z,16.8
2018-06-24T17:33:49.803Z,16.8
2018-06-24T17:35:09.697Z,16.8
2018-06-24T17:36:32.104Z,16.7
2018-06-24T17:37:51.928Z,16.6
2018-06-24T17:39:11.762Z,16.6
2018-06-24T17:40:34.151Z,16.5
2018-06-24T17:41:54.017Z,16.5
2018-06-24T17:43:18.915Z,16.5
2018-06-24T17:44:38.738Z,16.4
2018-06-24T17:46:03.740Z,16.4
2018-06-24T17:47:31.173Z,16.4
2018-06-24T17:48:56.150Z,16.4
2018-06-24T17:50:15.976Z,16.5
2018-06-24T17:51:38.388Z,16.5
2018-06-24T17:53:00.767Z,16.5
2018-06-24T17:54:20.628Z,16.5
2018-06-24T17:55:42.982Z,16.5
2018-06-24T17:57:10.435Z,16.5
2018-06-24T17:58:35.367Z,16.4
2018-06-24T17:59:55.220Z,16.4
2018-06-24T18:01:22.676Z,16.3
2018-06-24T18:02:45.061Z,16.4
2018-06-24T18:04:04.920Z,16.4
2018-06-24T18:05:39.958Z,16.3
2018-06-24T18:07:02.329Z,16.4
2018-06-24T18:08:24.701Z,16.4
2018-06-24T18:09:44.553Z,16.3
2018-06-24T18:11:09.492Z,16.2
2018-06-24T18:12:31.911Z,16.1
2018-06-24T18:13:54.275Z,16
2018-06-24T18:15:16.737Z,16
2018-06-24T18:16:51.804Z,16
2018-06-24T18:18:47.142Z,16
2018-06-24T18:20:12.082Z,16
2018-06-24T18:21:52.238Z,16
2018-06-24T18:23:27.363Z,15.9
2018-06-24T18:25:15.153Z,15.9
2018-06-24T18:27:10.554Z,15.9